KLPC/LPC METAR and TAF weather

Enter ICAO airport designator
Station Type Date Time Source
KLPC METAR 2022/06/26 07:56 UTC NOAA

KLPC 260756Z AUTO 27005KT 10SM OVC004 13/13 A2998 RMK AO2 SLP154 T01280128 402170122


Station Type Date Time Source
KLPC Decoded METAR 2022/06/26 07:56 UTC NOAA

Lompoc, Lompoc Airport, CA, United States (KLPC) 34-40N 120-28W
Jun 26, 2022 - 03:56 AM EDT / 2022.06.26 0756 UTC
Wind: from the W (270 degrees) at 6 MPH (5 KT):0
Visibility: 10 mile(s):0
Sky conditions: overcast
Temperature: 55.0 F (12.8 C)
Dew Point: 55.0 F (12.8 C)
Relative Humidity: 100%
Pressure (altimeter): 29.98 in. Hg (1015 hPa)
ob: KLPC 260756Z AUTO 27005KT 10SM OVC004 13/13 A2998 RMK AO2 SLP154 T01280128 402170122
cycle: 8

Station Type Date Time Source
KLPC TAF UTC NOAA

Error!

Example: see airport list